Time;durP1;ratioP1;P1;durP2;ratioP2;P2;SDS_P1;SDS_P2;PMS_P1;PMS_P2;Temp;Humidity;BMP_temperature;BMP_pressure;BME280_temperature;BME280_humidity;BME280_pressure;Samples;Min_cycle;Max_cycle;Signal;HPM_P1;HPM_P2
2023/04/07 00:01:09;;;;;;;7.30;4.93;;;;;;;17.94;39.01;101190.59;5073959;28;20379;-46
2023/04/07 00:03:39;;;;;;;8.00;5.20;;;;;;;17.94;38.85;101186.09;5073817;28;20044;-46
2023/04/07 00:06:07;;;;;;;7.28;5.32;;;;;;;17.93;39.01;101179.03;5073858;28;20044;-45
2023/04/07 00:08:34;;;;;;;6.88;5.47;;;;;;;17.94;38.95;101182.56;5073806;28;20052;-45
2023/04/07 00:11:01;;;;;;;8.60;5.38;;;;;;;17.92;39.02;101185.38;5073711;28;20045;-47
2023/04/07 00:13:29;;;;;;;7.25;5.28;;;;;;;17.92;38.81;101174.66;5072886;28;20049;-45
2023/04/07 00:15:57;;;;;;;7.00;4.70;;;;;;;17.92;38.81;101171.97;5073832;28;20053;-50
2023/04/07 00:18:24;;;;;;;6.40;4.90;;;;;;;17.92;38.77;101168.44;5073791;28;20048;-49
2023/04/07 00:20:51;;;;;;;6.57;5.15;;;;;;;17.92;38.89;101174.66;5073765;28;20044;-49
2023/04/07 00:23:19;;;;;;;7.38;4.78;;;;;;;17.92;38.80;101168.44;5073617;28;20052;-49
2023/04/07 00:25:47;;;;;;;7.63;4.90;;;;;;;17.91;38.75;101169.41;5073640;28;20537;-49
2023/04/07 00:28:14;;;;;;;7.38;5.25;;;;;;;17.91;38.79;101164.06;5073583;28;20044;-50
2023/04/07 00:30:42;;;;;;;7.68;4.95;;;;;;;17.90;38.72;101160.50;5073697;28;20044;-49
2023/04/07 00:33:09;;;;;;;7.90;4.80;;;;;;;17.90;38.58;101165.88;5073620;28;20033;-49
2023/04/07 00:35:36;;;;;;;6.70;4.97;;;;;;;17.90;38.75;101165.88;5073567;28;20048;-45
2023/04/07 00:38:04;;;;;;;7.75;4.88;;;;;;;17.89;38.73;101164.16;5073614;28;20052;-45
2023/04/07 00:40:32;;;;;;;6.15;4.78;;;;;;;17.90;38.76;101162.34;5072748;28;20055;-47
2023/04/07 00:42:59;;;;;;;8.63;5.05;;;;;;;17.89;38.68;101164.16;5072269;28;20056;-48
2023/04/07 00:45:26;;;;;;;7.68;5.00;;;;;;;17.90;38.67;101165.00;5072038;28;20056;-52
2023/04/07 00:47:56;;;;;;;6.88;4.68;;;;;;;17.89;38.50;101163.31;5073847;28;20060;-49
2023/04/07 00:50:24;;;;;;;7.45;5.03;;;;;;;17.89;38.67;101163.31;5073338;28;20470;-51
2023/04/07 00:52:53;;;;;;;6.70;4.45;;;;;;;17.88;38.69;101157.09;5072094;28;20045;-49
2023/04/07 00:55:21;;;;;;;5.90;4.40;;;;;;;17.88;38.68;101159.78;5073445;28;20103;-48
2023/04/07 00:57:50;;;;;;;6.38;5.10;;;;;;;17.87;38.48;101150.03;5073441;28;20051;-46
2023/04/07 01:00:18;;;;;;;5.43;4.45;;;;;;;17.87;38.63;101155.41;5072156;28;20048;-46
2023/04/07 01:03:00;;;;;;;7.45;4.65;;;;;;;17.87;38.71;101158.09;5071875;28;20071;-45
2023/04/07 01:05:45;;;;;;;5.93;4.40;;;;;;;17.87;38.65;101154.56;5071911;28;20391;-46
2023/04/07 01:08:42;;;;;;;6.25;4.40;;;;;;;17.87;38.67;101157.22;5073136;28;20045;-45
2023/04/07 01:11:10;;;;;;;5.93;4.78;;;;;;;17.86;38.63;101144.78;5071857;28;20052;-45
2023/04/07 01:13:49;;;;;;;6.65;4.38;;;;;;;17.85;38.61;101135.03;5073099;28;20475;-47
2023/04/07 01:16:33;;;;;;;6.47;4.60;;;;;;;17.86;38.62;101134.06;5071451;28;20415;-50
2023/04/07 01:19:13;;;;;;;6.80;4.55;;;;;;;17.85;38.72;101141.25;5072044;28;20052;-49
2023/04/07 01:21:45;;;;;;;7.35;4.13;;;;;;;17.85;38.70;101135.03;5072152;28;20049;-48
2023/04/07 01:24:48;;;;;;;7.03;5.10;;;;;;;17.83;38.65;101132.50;5072011;28;20048;-49
2023/04/07 01:27:41;;;;;;;9.60;4.53;;;;;;;17.83;38.67;101137.84;5072275;28;20056;-46
2023/04/07 01:30:11;;;;;;;7.47;4.22;;;;;;;17.84;38.76;101138.69;5072970;28;20049;-46
2023/04/07 01:32:42;;;;;;;6.93;4.20;;;;;;;17.83;38.72;101135.19;5073086;28;20111;-44
2023/04/07 01:35:12;;;;;;;5.53;4.18;;;;;;;17.82;38.77;101135.28;5073018;28;20072;-44
2023/04/07 01:37:40;;;;;;;5.63;4.22;;;;;;;17.83;38.73;101126.28;5072820;28;20383;-45
2023/04/07 01:40:09;;;;;;;6.28;4.47;;;;;;;17.82;38.67;101136.13;5073000;28;20048;-45
2023/04/07 01:42:38;;;;;;;6.68;4.05;;;;;;;17.82;38.64;101129.91;5071916;28;20041;-46
2023/04/07 01:45:07;;;;;;;5.45;3.90;;;;;;;17.82;38.67;101125.41;5072972;28;20487;-49
2023/04/07 01:47:38;;;;;;;6.00;4.20;;;;;;;17.82;38.52;101129.91;5072825;28;20045;-52
2023/04/07 01:50:08;;;;;;;7.47;4.75;;;;;;;17.81;38.65;101125.53;5071928;28;20044;-50
2023/04/07 01:52:36;;;;;;;5.35;4.05;;;;;;;17.81;38.63;101128.22;5075341;28;20045;-49
2023/04/07 01:55:05;;;;;;;5.90;3.95;;;;;;;17.80;38.54;101119.31;5076358;28;20049;-45
2023/04/07 01:57:36;;;;;;;5.28;3.85;;;;;;;17.80;38.46;101116.66;5075007;28;20510;-45
2023/04/07 02:00:12;;;;;;;5.53;4.07;;;;;;;17.81;38.60;101112.16;5074723;28;20495;-45
2023/04/07 02:02:46;;;;;;;;;;;;;;;17.79;38.76;101104.25;5075074;28;20048;-46
2023/04/07 02:05:19;;;;;;;7.00;4.55;;;;;;;17.80;38.71;101095.22;5074868;28;19920;-49
2023/04/07 02:08:00;;;;;;;7.07;4.55;;;;;;;17.78;38.74;101106.06;5074792;28;20419;-49
2023/04/07 02:10:30;;;;;;;7.30;4.07;;;;;;;17.78;38.81;101106.06;5075084;28;20048;-49
2023/04/07 02:13:02;;;;;;;6.13;3.80;;;;;;;17.77;38.82;101101.66;5074717;28;20059;-49
2023/04/07 02:15:33;;;;;;;6.95;4.15;;;;;;;17.77;38.70;101104.31;5076141;28;20494;-50
2023/04/07 02:18:02;;;;;;;5.28;3.88;;;;;;;17.77;38.91;101103.47;5075745;28;20051;-49
2023/04/07 02:20:30;;;;;;;4.70;3.95;;;;;;;17.77;38.92;101100.81;5075725;28;20044;-49
2023/04/07 02:22:57;;;;;;;5.75;3.95;;;;;;;17.76;39.10;101102.63;5075891;28;20036;-53
2023/04/07 02:25:27;;;;;;;5.90;3.67;;;;;;;17.77;38.80;101100.81;5074775;28;20067;-49
2023/04/07 02:27:57;;;;;;;6.05;4.13;;;;;;;17.77;38.99;101107.00;5074824;28;20060;-48
2023/04/07 02:30:25;;;;;;;5.35;4.10;;;;;;;17.76;38.92;101109.81;5075919;28;20048;-48
2023/04/07 02:32:52;;;;;;;6.10;3.60;;;;;;;17.74;39.01;101104.59;5075640;28;20420;-48
2023/04/07 02:35:20;;;;;;;5.70;3.83;;;;;;;17.74;39.04;101109.94;5075657;28;20044;-46
2023/04/07 02:37:48;;;;;;;6.63;4.05;;;;;;;17.74;38.92;101115.28;5075804;28;20048;-45
2023/04/07 02:40:15;;;;;;;5.40;3.92;;;;;;;17.74;39.03;101112.63;5075447;28;20044;-44
2023/04/07 02:42:42;;;;;;;4.63;3.42;;;;;;;17.74;39.14;101117.06;5075511;28;20052;-49
2023/04/07 02:45:10;;;;;;;6.13;4.38;;;;;;;17.73;39.21;101126.91;5074727;28;20052;-49
2023/04/07 02:47:38;;;;;;;7.00;4.03;;;;;;;17.74;39.12;101123.34;5075444;28;20051;-49
2023/04/07 02:50:06;;;;;;;5.20;3.78;;;;;;;17.73;38.98;101116.22;5074320;28;20052;-51
2023/04/07 02:52:35;;;;;;;5.63;3.55;;;;;;;17.74;39.04;101122.41;5074372;28;20056;-48
2023/04/07 02:55:09;;;;;;;5.20;4.10;;;;;;;17.73;39.18;101126.91;5073934;28;20053;-46
2023/04/07 02:57:36;;;;;;;7.28;4.22;;;;;;;17.73;39.17;101121.56;5073853;28;20060;-47
2023/04/07 03:00:09;;;;;;;8.13;3.90;;;;;;;17.72;39.14;101119.88;5073794;28;20059;-45
2023/04/07 03:03:02;;;;;;;5.00;3.42;;;;;;;17.72;39.17;101119.88;5073523;28;20063;-44
2023/04/07 03:05:33;;;;;;;6.43;3.85;;;;;;;17.72;39.15;101113.66;5074088;28;20056;-45
2023/04/07 03:08:02;;;;;;;5.57;3.22;;;;;;;17.72;39.18;101116.34;5075210;28;20060;-45
2023/04/07 03:10:29;;;;;;;4.95;3.75;;;;;;;17.71;39.07;101118.16;5073690;28;20056;-46
2023/04/07 03:12:57;;;;;;;6.55;4.13;;;;;;;17.72;39.17;101110.97;5074838;28;20044;-47
2023/04/07 03:15:25;;;;;;;6.40;3.75;;;;;;;17.71;39.14;101111.97;5073525;28;20045;-49
2023/04/07 03:17:53;;;;;;;6.03;3.80;;;;;;;17.70;39.19;101105.75;5073682;28;20056;-48
2023/04/07 03:20:20;;;;;;;4.28;3.40;;;;;;;17.70;39.22;101111.09;5074992;28;20052;-45
2023/04/07 03:22:47;;;;;;;5.22;3.60;;;;;;;17.69;39.27;101112.06;5073540;28;20052;-51
2023/04/07 03:25:21;;;;;;;6.13;3.63;;;;;;;17.70;39.02;101112.91;5073302;28;20048;-44
2023/04/07 03:27:50;;;;;;;5.68;3.90;;;;;;;17.69;39.07;101112.06;5073635;28;20471;-44
2023/04/07 03:30:18;;;;;;;4.78;3.45;;;;;;;17.69;39.17;101111.19;5074459;28;20041;-48
2023/04/07 03:32:46;;;;;;;4.97;3.38;;;;;;;17.69;39.18;101105.84;5073116;28;20052;-45
2023/04/07 03:35:13;;;;;;;4.53;3.50;;;;;;;17.68;39.19;101110.34;5073158;28;20044;-45
2023/04/07 03:37:42;;;;;;;4.82;3.40;;;;;;;17.68;39.10;101113.03;5073273;28;20123;-45
2023/04/07 03:40:14;;;;;;;6.05;3.40;;;;;;;17.68;39.23;101115.72;5073184;28;20063;-46
2023/04/07 03:42:42;;;;;;;5.28;3.33;;;;;;;17.67;39.22;101111.31;5074067;28;20056;-45
2023/04/07 03:45:11;;;;;;;7.57;3.97;;;;;;;17.68;39.22;101114.84;5073685;28;20048;-49
2023/04/07 03:47:43;;;;;;;6.40;4.15;;;;;;;17.68;39.21;101112.19;5072804;28;20049;-52
2023/04/07 03:50:11;;;;;;;4.25;3.47;;;;;;;17.67;39.24;101119.34;5073140;28;20048;-48
2023/04/07 03:52:52;;;;;;;5.93;3.47;;;;;;;17.67;39.12;101116.69;5072708;28;20056;-49
2023/04/07 03:55:28;;;;;;;5.47;3.80;;;;;;;17.66;39.32;101119.44;5074302;28;20053;-45
2023/04/07 03:58:01;;;;;;;6.82;3.90;;;;;;;17.66;39.27;101114.09;5072418;28;20044;-45
2023/04/07 04:00:32;;;;;;;6.88;4.07;;;;;;;17.66;39.25;101114.97;5073181;28;20055;-45
2023/04/07 04:03:06;;;;;;;6.10;4.10;;;;;;;17.67;39.29;101107.81;5072689;28;20063;-47
2023/04/07 04:05:36;;;;;;;5.63;3.83;;;;;;;17.66;39.33;101109.63;5072820;28;20044;-49
2023/04/07 04:08:04;;;;;;;5.47;3.78;;;;;;;17.65;39.38;101112.41;5072486;28;20083;-50
2023/04/07 04:10:34;;;;;;;6.72;3.47;;;;;;;17.66;39.35;101108.75;5072895;28;20063;-48
2023/04/07 04:13:05;;;;;;;4.82;3.30;;;;;;;17.66;39.34;101108.75;5072789;28;20048;-50
2023/04/07 04:15:34;;;;;;;5.95;3.70;;;;;;;17.65;39.34;101113.25;5071495;28;20049;-47
2023/04/07 04:18:04;;;;;;;5.35;3.30;;;;;;;17.66;39.27;101103.38;5072129;28;20411;-45
2023/04/07 04:20:33;;;;;;;5.22;3.35;;;;;;;17.65;39.31;101102.53;5072609;28;20060;-45
2023/04/07 04:23:03;;;;;;;4.88;3.78;;;;;;;17.65;39.47;101109.72;5072130;28;20060;-45
2023/04/07 04:25:30;;;;;;;4.82;3.45;;;;;;;17.64;39.49;101103.50;5072222;28;20491;-49
2023/04/07 04:27:58;;;;;;;5.13;3.65;;;;;;;17.64;39.50;101116.06;5072140;28;20049;-48
2023/04/07 04:30:26;;;;;;;5.65;3.50;;;;;;;17.64;39.31;101108.03;5072442;28;20057;-50
2023/04/07 04:32:58;;;;;;;5.32;3.55;;;;;;;17.63;39.47;101112.53;5072198;28;20475;-52
2023/04/07 04:35:36;;;;;;;6.63;4.03;;;;;;;17.62;39.39;101107.25;5073275;28;20052;-49
2023/04/07 04:38:10;;;;;;;5.15;3.83;;;;;;;17.63;39.48;101123.22;5072372;28;20060;-52
2023/04/07 04:40:42;;;;;;;6.55;3.45;;;;;;;17.62;39.59;101121.50;5072006;28;20052;-49
2023/04/07 04:43:10;;;;;;;6.63;4.28;;;;;;;17.62;39.56;101123.31;5072190;28;20044;-49
2023/04/07 04:45:39;;;;;;;6.00;3.50;;;;;;;17.61;39.52;101122.47;5072387;28;20494;-45
2023/04/07 04:48:10;;;;;;;5.75;4.10;;;;;;;17.61;39.47;101121.63;5072216;28;20048;-45
2023/04/07 04:50:37;;;;;;;5.28;3.80;;;;;;;17.60;39.56;101126.13;5072047;28;20499;-45
2023/04/07 04:53:09;;;;;;;4.72;3.80;;;;;;;17.61;39.57;101121.63;5073154;28;20063;-45
2023/04/07 04:55:50;;;;;;;6.28;4.00;;;;;;;17.60;39.55;101128.81;5071525;28;20052;-49
2023/04/07 04:58:23;;;;;;;7.90;3.90;;;;;;;17.60;39.51;101127.94;5072061;28;20491;-52
2023/04/07 05:00:59;;;;;;;6.10;3.95;;;;;;;17.60;39.67;101138.66;5072115;28;20067;-51
2023/04/07 05:03:49;;;;;;;6.80;3.47;;;;;;;17.59;39.70;101140.50;5072798;28;20049;-52
2023/04/07 05:06:22;;;;;;;6.43;4.00;;;;;;;17.59;39.68;101140.50;5072304;28;20052;-52
2023/04/07 05:08:51;;;;;;;4.90;3.25;;;;;;;17.59;39.72;101148.53;5071828;28;20048;-49
2023/04/07 05:11:23;;;;;;;5.32;3.35;;;;;;;17.60;39.60;101149.38;5071886;28;20053;-50
2023/04/07 05:13:52;;;;;;;5.85;3.90;;;;;;;17.60;39.73;101154.72;5072958;28;20064;-50
2023/04/07 05:16:20;;;;;;;5.20;3.22;;;;;;;17.60;39.74;101155.56;5073302;28;20044;-49
2023/04/07 05:18:48;;;;;;;5.20;3.67;;;;;;;17.60;39.66;101147.53;5072114;28;20063;-46
2023/04/07 05:21:16;;;;;;;5.28;3.83;;;;;;;17.59;39.81;101139.63;5072096;28;20059;-45
2023/04/07 05:23:43;;;;;;;5.22;3.90;;;;;;;17.60;39.72;101144.03;5073089;28;20044;-45
2023/04/07 05:26:10;;;;;;;7.82;4.13;;;;;;;17.60;39.68;101146.69;5073776;28;20041;-45
2023/04/07 05:28:39;;;;;;;5.50;3.60;;;;;;;17.58;39.64;101141.44;5075975;28;20048;-50
2023/04/07 05:31:13;;;;;;;4.97;3.45;;;;;;;17.59;39.61;101139.63;5075538;28;20052;-50
2023/04/07 05:33:40;;;;;;;7.53;4.18;;;;;;;17.59;39.63;101145.00;5076848;28;20052;-52
2023/04/07 05:36:08;;;;;;;5.43;3.92;;;;;;;17.59;39.61;101150.34;5075769;28;20388;-50
2023/04/07 05:38:35;;;;;;;6.53;4.53;;;;;;;17.58;39.69;101145.94;5075761;28;20063;-53
2023/04/07 05:41:11;;;;;;;5.95;3.75;;;;;;;17.57;39.49;101150.44;5075478;28;20063;-51
2023/04/07 05:43:38;;;;;;;6.07;4.10;;;;;;;17.57;39.52;101146.91;5075101;28;20053;-51
2023/04/07 05:46:06;;;;;;;5.50;3.90;;;;;;;17.57;39.70;101136.19;5076856;28;20056;-52
2023/04/07 05:48:39;;;;;;;5.78;3.72;;;;;;;17.57;39.53;101137.06;5075196;28;20052;-51
2023/04/07 05:51:07;;;;;;;7.10;4.22;;;;;;;17.57;39.45;101133.53;5076548;28;20051;-48
2023/04/07 05:53:35;;;;;;;5.28;4.15;;;;;;;17.57;39.41;101130.84;5075465;28;20437;-47
2023/04/07 05:56:02;;;;;;;6.20;4.07;;;;;;;17.55;39.53;101141.69;5076312;28;20056;-50
2023/04/07 05:58:48;;;;;;;8.40;3.42;;;;;;;17.55;39.43;101134.50;5075109;28;20059;-51
2023/04/07 06:01:16;;;;;;;6.10;4.03;;;;;;;17.56;39.45;101132.69;5076351;28;20060;-54
2023/04/07 06:03:43;;;;;;;5.10;3.72;;;;;;;17.55;39.35;101121.13;5076318;28;20466;-52
2023/04/07 06:06:15;;;;;;;6.50;4.05;;;;;;;17.55;39.43;101126.47;5076199;28;20036;-47
2023/04/07 06:08:44;;;;;;;5.07;3.55;;;;;;;17.56;39.43;101113.94;5076373;28;20063;-48
2023/04/07 06:11:12;;;;;;;7.95;3.95;;;;;;;17.57;39.31;101109.44;5075134;28;20060;-53
2023/04/07 06:13:40;;;;;;;4.88;3.47;;;;;;;17.57;39.33;101104.06;5076114;28;20055;-52
2023/04/07 06:16:08;;;;;;;5.93;3.70;;;;;;;17.56;39.29;101113.94;5076124;28;20048;-54
2023/04/07 06:18:37;;;;;;;5.18;3.95;;;;;;;17.56;39.29;101111.25;5075113;28;20056;-50
2023/04/07 06:21:06;;;;;;;6.90;3.90;;;;;;;17.57;39.43;101109.44;5076054;28;20498;-51
2023/04/07 06:23:33;;;;;;;5.20;3.55;;;;;;;17.57;39.21;101114.78;5076100;28;20049;-51
2023/04/07 06:26:00;;;;;;;8.55;4.43;;;;;;;17.57;39.34;101118.31;5075964;28;20059;-51
2023/04/07 06:28:29;;;;;;;5.88;3.55;;;;;;;17.57;39.21;101107.59;5074814;28;20064;-51
2023/04/07 06:30:58;;;;;;;5.38;3.47;;;;;;;17.57;39.26;101110.28;5074166;28;20048;-50
2023/04/07 06:33:27;;;;;;;9.98;4.20;;;;;;;17.58;39.37;101106.63;5074331;28;20056;-49
2023/04/07 06:35:56;;;;;;;4.95;3.38;;;;;;;17.58;38.97;101114.66;5075363;28;20048;-50
2023/04/07 06:38:23;;;;;;;5.93;3.90;;;;;;;17.57;39.25;101115.63;5074690;28;20040;-50
2023/04/07 06:40:51;;;;;;;5.38;3.95;;;;;;;17.59;39.39;101113.72;5075433;28;20044;-50
2023/04/07 06:43:18;;;;;;;6.60;4.20;;;;;;;17.60;39.34;101115.41;5075711;28;20044;-51
2023/04/07 06:45:54;;;;;;;7.25;3.42;;;;;;;17.59;39.21;101111.03;5074467;28;20048;-50
2023/04/07 06:48:22;;;;;;;7.05;3.83;;;;;;;17.60;39.26;101115.41;5075711;28;20378;-50
2023/04/07 06:50:50;;;;;;;5.50;4.15;;;;;;;17.59;39.21;101113.72;5075524;28;20055;-50
2023/04/07 06:53:17;;;;;;;6.57;3.95;;;;;;;17.60;39.25;101109.22;5075432;28;20040;-53
2023/04/07 06:55:44;;;;;;;4.32;3.63;;;;;;;17.59;39.21;101119.06;5075190;28;20049;-49
2023/04/07 06:58:12;;;;;;;8.27;4.07;;;;;;;17.61;39.23;101121.63;5075480;28;20071;-50
2023/04/07 07:00:39;;;;;;;5.35;3.08;;;;;;;17.60;39.44;101115.41;5074166;28;20387;-50
2023/04/07 07:03:06;;;;;;;6.60;3.92;;;;;;;17.62;39.28;101112.63;5075475;28;20426;-50
2023/04/07 07:05:34;;;;;;;6.40;4.45;;;;;;;17.63;39.24;101117.88;5075363;28;20490;-50
2023/04/07 07:08:02;;;;;;;6.80;3.75;;;;;;;17.63;39.35;101114.34;5075200;28;20459;-51
2023/04/07 07:10:29;;;;;;;6.18;3.72;;;;;;;17.63;39.37;101109.00;5075066;28;20048;-50
2023/04/07 07:12:56;;;;;;;7.00;3.95;;;;;;;17.64;39.57;101106.19;5075089;28;20059;-48
2023/04/07 07:15:24;;;;;;;7.35;3.60;;;;;;;17.64;39.27;101111.53;5074923;28;20048;-45
2023/04/07 07:17:51;;;;;;;6.10;3.97;;;;;;;17.65;39.35;101107.91;5075900;28;20048;-46
2023/04/07 07:20:19;;;;;;;7.85;3.83;;;;;;;17.65;39.53;101102.53;5074816;28;20379;-46
2023/04/07 07:22:46;;;;;;;7.13;3.63;;;;;;;17.66;39.47;101101.59;5074899;28;20056;-49
2023/04/07 07:25:13;;;;;;;5.85;3.40;;;;;;;17.68;39.56;101106.81;5074480;28;20407;-50
2023/04/07 07:27:41;;;;;;;6.60;3.95;;;;;;;17.67;39.58;101105.97;5074635;28;20052;-50
2023/04/07 07:30:08;;;;;;;5.65;4.03;;;;;;;17.68;39.63;101102.31;5074756;28;20044;-50
2023/04/07 07:32:36;;;;;;;7.53;3.22;;;;;;;17.70;40.12;101103.06;5074312;28;20044;-53
2023/04/07 07:35:04;;;;;;;8.57;4.25;;;;;;;17.72;39.51;101105.63;5068458;28;20041;-46
2023/04/07 07:37:32;;;;;;;8.30;4.00;;;;;;;17.73;40.24;101097.47;5054685;28;20064;-46
2023/04/07 07:39:59;;;;;;;6.18;3.97;;;;;;;17.76;39.52;101101.78;5054281;28;20048;-45
2023/04/07 07:42:27;;;;;;;8.35;4.13;;;;;;;17.78;39.16;101102.50;5053826;28;20045;-44
2023/04/07 07:44:54;;;;;;;9.05;5.18;;;;;;;17.79;38.61;101097.06;5054146;28;20048;-44
2023/04/07 07:47:22;;;;;;;7.35;4.50;;;;;;;17.81;39.05;101096.06;5053749;28;20037;-47
2023/04/07 07:49:49;;;;;;;7.35;5.28;;;;;;;17.82;38.22;101092.41;5053919;28;20048;-46
2023/04/07 07:52:17;;;;;;;8.82;4.88;;;;;;;17.83;38.52;101095.00;5053897;28;20045;-45
2023/04/07 07:54:44;;;;;;;7.57;4.30;;;;;;;17.84;38.99;101088.66;5053720;28;20041;-49
2023/04/07 07:57:11;;;;;;;7.88;5.55;;;;;;;17.85;38.54;101089.53;5053721;28;20044;-53
2023/04/07 07:59:41;;;;;;;7.05;4.18;;;;;;;17.86;39.03;101086.72;5053828;28;20044;-49
2023/04/07 08:02:09;;;;;;;6.18;4.50;;;;;;;17.87;39.08;101090.28;5053869;28;20041;-50
2023/04/07 08:04:37;;;;;;;5.18;4.13;;;;;;;17.88;39.18;101089.28;5053744;28;20048;-52
2023/04/07 08:07:04;;;;;;;7.03;4.50;;;;;;;17.90;39.19;101084.66;5053633;28;20049;-51
2023/04/07 08:09:32;;;;;;;6.72;3.97;;;;;;;17.90;39.29;101090.00;5053545;28;20675;-50
2023/04/07 08:12:00;;;;;;;6.78;4.55;;;;;;;17.91;39.45;101081.03;5053666;28;20047;-49
2023/04/07 08:14:27;;;;;;;5.93;3.85;;;;;;;17.93;39.35;101084.44;5053623;28;20069;-50
2023/04/07 08:16:55;;;;;;;5.95;3.80;;;;;;;17.93;39.20;101081.75;5053898;28;20041;-53
2023/04/07 08:19:22;;;;;;;6.70;4.25;;;;;;;17.94;39.16;101080.78;5053107;28;20049;-53
2023/04/07 08:21:51;;;;;;;5.53;3.90;;;;;;;17.94;38.75;101080.78;5033526;28;20072;-53
2023/04/07 08:24:18;;;;;;;7.63;3.45;;;;;;;17.94;39.05;101078.94;5033419;28;20611;-52
2023/04/07 08:26:46;;;;;;;5.88;4.22;;;;;;;17.94;38.69;101076.28;5053213;28;20048;-45
2023/04/07 08:29:14;;;;;;;5.80;4.40;;;;;;;17.96;39.05;101076.16;5053289;28;20143;-45
2023/04/07 08:31:41;;;;;;;6.25;4.30;;;;;;;17.96;38.31;101085.06;5053489;28;20045;-46
2023/04/07 08:34:08;;;;;;;7.53;4.45;;;;;;;17.96;38.21;101079.69;5053415;28;20482;-46
2023/04/07 08:36:36;;;;;;;5.82;4.13;;;;;;;17.96;38.29;101074.34;5053346;28;20037;-49
2023/04/07 08:39:04;;;;;;;6.00;4.43;;;;;;;17.96;37.92;101078.84;5053283;28;20048;-53
2023/04/07 08:41:41;;;;;;;5.88;4.10;;;;;;;17.95;38.67;101078.00;5053229;28;20052;-49
2023/04/07 08:44:09;;;;;;;8.20;4.57;;;;;;;17.96;38.78;101079.69;5053416;28;20041;-50
2023/04/07 08:46:40;;;;;;;5.03;3.60;;;;;;;17.97;39.14;101075.19;5053236;28;20500;-46
2023/04/07 08:49:09;;;;;;;10.93;4.43;;;;;;;17.99;39.29;101073.25;5053456;28;20049;-45
2023/04/07 08:51:37;;;;;;;5.85;4.28;;;;;;;17.99;39.51;101071.44;5053086;28;20048;-46
2023/04/07 08:54:10;;;;;;;6.93;3.85;;;;;;;18.01;39.44;101076.66;5053282;28;20068;-46
2023/04/07 08:56:40;;;;;;;6.15;4.05;;;;;;;18.01;39.41;101072.16;5053140;28;20056;-46
2023/04/07 08:59:09;;;;;;;5.10;3.40;;;;;;;18.02;39.27;101076.53;5053265;28;20041;-49
2023/04/07 09:01:38;;;;;;;6.78;3.67;;;;;;;18.02;39.04;101065.81;5054619;28;20048;-45
2023/04/07 09:04:08;;;;;;;8.18;4.82;;;;;;;18.04;39.10;101073.75;5057279;28;20053;-45
2023/04/07 09:06:36;;;;;;;8.68;5.13;;;;;;;18.04;38.57;101071.09;5056729;28;20506;-45
2023/04/07 09:09:06;;;;;;;8.63;4.63;;;;;;;18.04;38.78;101060.38;5057086;28;20388;-48
2023/04/07 09:11:35;;;;;;;8.38;4.22;;;;;;;18.04;39.09;101066.56;5056912;28;20053;-47
2023/04/07 09:14:03;;;;;;;7.72;5.13;;;;;;;18.06;38.68;101065.59;5057021;28;20067;-48
2023/04/07 09:16:31;;;;;;;8.93;5.10;;;;;;;18.04;38.60;101063.03;5056710;28;20049;-48
2023/04/07 09:18:58;;;;;;;8.52;5.80;;;;;;;18.03;38.68;101059.50;5057026;28;20060;-46
2023/04/07 09:21:26;;;;;;;8.48;4.93;;;;;;;18.04;38.60;101061.22;5056688;28;20415;-46
2023/04/07 09:23:54;;;;;;;8.90;5.38;;;;;;;18.05;38.86;101059.38;5056659;28;20067;-50
2023/04/07 09:26:27;;;;;;;9.30;5.75;;;;;;;18.04;38.83;101055.84;5056842;28;20045;-47
2023/04/07 09:28:58;;;;;;;8.55;6.93;;;;;;;18.05;37.71;101054.03;5056636;28;20068;-48
2023/04/07 09:31:56;;;;;;;10.93;7.55;;;;;;;18.03;37.51;101050.63;5056766;28;20048;-45
2023/04/07 09:34:26;;;;;;;8.48;7.07;;;;;;;18.03;37.53;101048.81;5056321;28;20064;-50
2023/04/07 09:36:56;;;;;;;10.38;6.22;;;;;;;18.03;37.62;101043.44;5056717;28;20045;-50
2023/04/07 09:39:24;;;;;;;9.25;6.30;;;;;;;18.04;38.15;101044.28;5056474;28;20410;-54
2023/04/07 09:41:51;;;;;;;10.65;7.57;;;;;;;18.02;36.77;101036.34;5056443;28;20494;-49
2023/04/07 09:44:23;;;;;;;9.68;7.00;;;;;;;18.03;37.06;101045.28;5056707;28;20049;-47
2023/04/07 09:46:55;;;;;;;8.82;6.75;;;;;;;18.02;37.06;101040.88;5056519;28;20048;-45
2023/04/07 09:49:24;;;;;;;10.60;7.20;;;;;;;18.01;36.90;101034.66;5056285;28;20056;-49
2023/04/07 09:52:00;;;;;;;9.75;6.32;;;;;;;18.01;37.19;101031.97;5056298;28;20049;-45
2023/04/07 09:54:33;;;;;;;11.02;7.15;;;;;;;18.03;37.11;101031.88;5056053;28;20052;-49
2023/04/07 09:57:01;;;;;;;;;;;;;;;18.02;37.34;101031.00;5056345;28;20399;-47
2023/04/07 09:59:30;;;;;;;8.48;6.47;;;;;;;18.03;37.00;101023.84;5056091;28;20263;-45
2023/04/07 10:01:58;;;;;;;7.75;6.15;;;;;;;18.03;37.08;101022.00;5055942;28;20712;-45
2023/04/07 10:04:30;;;;;;;9.52;7.05;;;;;;;18.02;36.28;101022.97;5056003;28;20045;-49
2023/04/07 10:06:59;;;;;;;9.15;5.80;;;;;;;18.04;37.07;101006.78;5056407;28;20041;-45
2023/04/07 10:09:27;;;;;;;7.95;6.35;;;;;;;18.04;36.94;101014.81;5056112;28;20396;-47
2023/04/07 10:11:57;;;;;;;9.45;5.78;;;;;;;18.04;37.06;101012.16;5055727;28;20048;-45
2023/04/07 10:14:30;;;;;;;10.18;7.82;;;;;;;18.06;34.33;101003.97;5054606;28;20472;-46
2023/04/07 10:17:02;;;;;;;8.05;5.85;;;;;;;18.06;35.60;100991.44;5055806;28;20048;-51
2023/04/07 10:19:34;;;;;;;10.13;6.60;;;;;;;18.07;34.86;100997.63;5054252;28;20055;-49
2023/04/07 10:22:05;;;;;;;9.90;6.60;;;;;;;18.10;36.26;100994.72;5055513;28;20282;-50
2023/04/07 10:24:57;;;;;;;7.53;5.70;;;;;;;18.09;36.96;100991.19;5055317;28;20057;-46
2023/04/07 10:27:35;;;;;;;7.45;4.95;;;;;;;18.08;36.86;100992.19;5055830;28;20064;-45
2023/04/07 10:30:06;;;;;;;7.57;5.72;;;;;;;18.08;36.37;100980.63;5055780;28;20040;-46
2023/04/07 10:32:46;;;;;;;12.50;7.20;;;;;;;18.09;34.69;100982.31;5055631;28;20049;-45
2023/04/07 10:35:14;;;;;;;10.50;7.13;;;;;;;18.09;35.20;100975.13;5055389;28;20053;-46
2023/04/07 10:38:09;;;;;;;8.73;6.18;;;;;;;18.09;36.48;100968.91;5055642;28;20057;-46
2023/04/07 10:40:37;;;;;;;8.02;5.97;;;;;;;18.10;36.76;100967.94;5055812;28;20056;-46
2023/04/07 10:43:10;;;;;;;6.68;4.97;;;;;;;18.10;36.61;100958.06;5055484;28;20049;-45
2023/04/07 10:45:47;;;;;;;6.47;4.82;;;;;;;18.09;37.25;100958.19;5055383;28;20056;-46
2023/04/07 10:48:17;;;;;;;6.03;5.00;;;;;;;18.09;36.86;100952.84;5055385;28;20108;-45
2023/04/07 10:50:45;;;;;;;8.68;4.93;;;;;;;18.08;37.03;100943.97;5055633;28;20053;-45
2023/04/07 10:53:15;;;;;;;7.45;5.45;;;;;;;18.09;36.32;100936.78;5055220;28;20052;-46
2023/04/07 10:55:46;;;;;;;7.22;5.18;;;;;;;18.07;36.04;100942.25;5055232;28;20041;-45
2023/04/07 10:58:29;;;;;;;8.55;6.68;;;;;;;18.07;34.84;100938.69;5055119;28;20056;-45
2023/04/07 11:01:00;;;;;;;6.63;4.53;;;;;;;18.08;36.39;100935.06;5055291;28;20060;-46
2023/04/07 11:03:29;;;;;;;6.93;5.22;;;;;;;18.08;36.48;100935.06;5054965;28;20049;-45
2023/04/07 11:06:04;;;;;;;8.50;5.55;;;;;;;18.08;35.95;100930.56;5054200;28;20053;-45
2023/04/07 11:08:35;;;;;;;6.05;4.82;;;;;;;18.08;36.38;100932.41;5053783;28;20056;-45
2023/04/07 11:11:07;;;;;;;6.25;5.28;;;;;;;18.08;36.10;100927.88;5054735;28;20049;-45
2023/04/07 11:13:42;;;;;;;5.57;4.90;;;;;;;18.09;36.49;100929.56;5054878;28;20056;-45
2023/04/07 11:16:10;;;;;;;7.15;4.35;;;;;;;18.09;36.61;100921.53;5053923;28;20060;-45
2023/04/07 11:18:38;;;;;;;6.53;4.32;;;;;;;18.09;36.89;100921.53;5054744;28;20045;-45
2023/04/07 11:21:06;;;;;;;5.72;4.25;;;;;;;18.11;37.08;100918.72;5054957;28;20053;-45
2023/04/07 11:23:52;;;;;;;5.63;4.15;;;;;;;18.10;37.32;100915.19;5054414;28;20053;-45
2023/04/07 11:26:20;;;;;;;6.20;3.83;;;;;;;18.11;37.27;100913.38;5055141;28;20048;-46
2023/04/07 11:28:51;;;;;;;4.72;3.60;;;;;;;18.11;37.34;100916.94;5053450;28;20049;-47
2023/04/07 11:31:30;;;;;;;5.35;3.78;;;;;;;18.12;37.54;100920.47;5054614;28;20045;-44
2023/04/07 11:34:06;;;;;;;6.75;3.97;;;;;;;18.12;37.41;100910.59;5054594;28;20526;-45
2023/04/07 11:36:36;;;;;;;5.03;3.90;;;;;;;18.12;37.36;100913.28;5054441;28;20052;-45
2023/04/07 11:39:04;;;;;;;4.93;3.70;;;;;;;18.12;37.29;100913.28;5054374;28;20045;-45